Manchester, CA

5:53 AM PDT on September 16, 2014 (GMT -0700)
Irish Beach | Change Station
CLOSE
Current Station
Personal Weather Station
Location: Manchester, CA
Elevation: 276 ft
Nearby Weather Stations

Elev 276 ft 39.02 °N, 123.69 °W | Updated 11 minutes ago

Clear
Clear
56.8 °F
Feels Like 56.8 °F
N
4.0
Wind Variable Wind from East

Today
High -- | Low -- °F
--% Chance of Precip.
Yesterday
High -- | Low -- °F
Precip. -- in
6:57 AM 7:21 PM
Last Quarter, 46% visible
Pressure 29.92 in
Visibility 10.0 miles
Clouds Clear
Dew Point 54 °F
Humidity 90%
Rainfall 0.00 in
Snow Depth 0 in , 0 in , 1 in
UV 0 out of 12
Pollen 6.60 out of 12
Air Quality Not available.
Flu Activity Not available.
METAR KUKI 161156Z AUTO 00000KT 10SM CLR 11/08 A2994 RMK AO2 SLP131 T01110083 10172 20111 56003

More Conditions Fewer Conditions

Pressure 29.92 in
Visibility 10.0 miles
Clouds Clear
Dew Point 54 °F
Humidity 90%
Rainfall 0.00 in
Snow Depth 0 in , 0 in , 1 in
UV 0 out of 12
Pollen 6.60 out of 12
Air Quality Not available.
Flu Activity Not available.
METAR KUKI 161156Z AUTO 00000KT 10SM CLR 11/08 A2994 RMK AO2 SLP131 T01110083 10172 20111 56003

More Conditions Fewer Conditions

10-Day Weather Forecast

Almanac

Astronomy

Sep. 16, 2014 Rise Set
Actual Time 6:57 AM PDT 7:21 PM PDT
Civil Twilight 6:30 AM PDT 7:47 PM PDT
Nautical Twilight 5:58 AM PDT 8:19 PM PDT
Astronomical Twilight 5:26 AM PDT 8:51 PM PDT
Moon 12:13 AM PDT 2:47 PM PDT
Length of Visible Light 13h 17m
Length of Day
12h 24m
Tomorrow will be 2m 31s shorter.
Last Quarter, 46% of the Moon is Illuminated
Today
Last Quarter
Sep 24
New
Oct 1
First Quarter
Oct 8
Full
Oct 15
Last Quarter

Today's Extremes

State Highs State Lows

Community

WunderPhotos

Upload Photos

1,753,756 photos uploaded!

Nearby

Snow Depth

Station Depth Elevation
Monitor Pass 0 in 8350 ft
Leavitt Meadows 0 in 7200 ft
CSS Lab 1 in 6900 ft
Forestdale Creek 0 in 8029 ft
Hagan's Meadow 1 in 8000 ft

Earthquake Activity

City Distance Mag. Time & Date
Covelo, California 58 miles 3.3 1:17 PM PDT
2014-09-14
Cobb, California 49 miles 2.7 11:07 AM PDT
2014-09-14
Minimum magnitude displayed is 2.5.

Coastal Water Temperatures

Place Temperature
Arena Cove, CA 60.1 °F
North Spit, CA 60.1 °F
Point Reyes, CA 62.1 °F
San Francisco, CA 64.9 °F
Richmond, CA 68.0 °F

Nearby Weather Stations